createdAt,value
2017-12-13T00:00:42.101Z,1.60
2017-12-13T00:01:42.050Z,1.59
2017-12-13T00:02:42.048Z,1.50
2017-12-13T00:03:42.045Z,1.52
2017-12-13T00:04:41.981Z,1.50
2017-12-13T00:05:41.961Z,1.34
2017-12-13T00:06:41.936Z,1.31
2017-12-13T00:07:41.908Z,1.20
2017-12-13T00:08:41.888Z,1.19
2017-12-13T00:09:41.882Z,1.06
2017-12-13T00:10:41.851Z,1.08
2017-12-13T00:11:41.831Z,1.05
2017-12-13T00:12:41.769Z,0.95
2017-12-13T00:13:41.752Z,0.88
2017-12-13T00:14:41.744Z,0.96
2017-12-13T00:15:41.715Z,0.87
2017-12-13T00:16:41.674Z,0.91
2017-12-13T00:17:41.648Z,0.77
2017-12-13T00:18:41.648Z,0.86
2017-12-13T00:19:41.622Z,0.69
2017-12-13T00:20:41.598Z,0.73
2017-12-13T00:21:41.581Z,0.68
2017-12-13T00:22:41.562Z,0.63
2017-12-13T00:23:41.518Z,0.65
2017-12-13T00:24:41.508Z,0.63
2017-12-13T00:25:41.456Z,0.66
2017-12-13T00:26:41.452Z,0.59
2017-12-13T00:27:41.411Z,0.66
2017-12-13T00:28:41.395Z,0.50
2017-12-13T00:29:41.362Z,0.66
2017-12-13T00:30:41.349Z,0.68
2017-12-13T00:31:41.313Z,0.60
2017-12-13T00:32:41.315Z,0.74
2017-12-13T00:33:41.305Z,0.74
2017-12-13T00:34:41.228Z,0.77
2017-12-13T00:35:41.237Z,0.78
2017-12-13T00:36:41.206Z,0.78
2017-12-13T00:37:41.172Z,0.78
2017-12-13T00:38:41.147Z,0.77
2017-12-13T00:39:41.140Z,0.84
2017-12-13T00:40:41.134Z,0.84
2017-12-13T00:41:41.077Z,0.92
2017-12-13T00:42:41.078Z,0.94
2017-12-13T00:43:41.043Z,0.98
2017-12-13T00:44:41.013Z,1.04
2017-12-13T00:45:40.972Z,1.08
2017-12-13T00:46:40.979Z,1.06
2017-12-13T00:47:40.963Z,1.08
2017-12-13T00:48:40.921Z,1.10
2017-12-13T00:49:40.893Z,1.05
2017-12-13T00:50:40.875Z,1.08
2017-12-13T00:51:40.837Z,1.08
2017-12-13T00:52:40.873Z,1.04
2017-12-13T00:53:40.761Z,1.12
2017-12-13T00:54:40.781Z,1.14
2017-12-13T00:55:40.729Z,1.05
2017-12-13T00:56:40.690Z,1.02
2017-12-13T00:57:40.709Z,1.06
2017-12-13T00:58:40.706Z,1.06
2017-12-13T00:59:40.623Z,1.02
2017-12-13T01:00:40.612Z,0.98
2017-12-13T01:01:40.585Z,0.98
2017-12-13T01:02:40.540Z,0.91
2017-12-13T01:03:40.577Z,0.99
2017-12-13T01:04:40.507Z,0.99
2017-12-13T01:05:40.502Z,0.99
2017-12-13T01:06:40.448Z,1.04
2017-12-13T01:07:40.458Z,1.10
2017-12-13T01:08:40.440Z,1.10
2017-12-13T01:09:40.375Z,1.06
2017-12-13T01:10:40.376Z,1.13
2017-12-13T01:11:40.341Z,1.14
2017-12-13T01:12:40.326Z,1.13
2017-12-13T01:13:40.273Z,1.06
2017-12-13T01:14:40.274Z,1.17
2017-12-13T01:15:40.282Z,1.06
2017-12-13T01:16:40.193Z,1.13
2017-12-13T01:17:40.178Z,1.16
2017-12-13T01:18:40.193Z,1.22
2017-12-13T01:19:40.153Z,1.17
2017-12-13T01:20:40.118Z,1.24
2017-12-13T01:21:40.101Z,1.34
2017-12-13T01:22:40.060Z,1.31
2017-12-13T01:23:40.065Z,1.30
2017-12-13T01:24:40.012Z,1.37
2017-12-13T01:25:40.006Z,1.35
2017-12-13T01:26:39.962Z,1.34
2017-12-13T01:27:40.880Z,1.48
2017-12-13T01:28:39.923Z,1.44
2017-12-13T01:29:39.918Z,1.41
2017-12-13T01:30:39.872Z,1.52
2017-12-13T01:31:39.877Z,1.48
2017-12-13T01:32:39.832Z,1.45
2017-12-13T01:33:39.810Z,1.52
2017-12-13T01:34:39.776Z,1.50
2017-12-13T01:35:39.748Z,1.45
2017-12-13T01:36:39.784Z,1.44
2017-12-13T01:37:39.743Z,1.41
2017-12-13T01:38:39.684Z,1.45
2017-12-13T01:39:39.641Z,1.50
2017-12-13T01:40:39.645Z,1.49
2017-12-13T01:41:39.618Z,1.49
2017-12-13T01:42:39.597Z,1.45
2017-12-13T01:43:39.576Z,1.55
2017-12-13T01:44:39.522Z,1.58
2017-12-13T01:45:39.501Z,1.48
2017-12-13T01:46:39.483Z,1.44
2017-12-13T01:47:39.458Z,1.62
2017-12-13T01:48:39.419Z,1.63
2017-12-13T01:49:39.396Z,1.60
2017-12-13T01:50:39.379Z,1.59
2017-12-13T01:51:39.383Z,1.68
2017-12-13T01:52:39.343Z,1.60
2017-12-13T01:53:39.355Z,1.58
2017-12-13T01:54:39.284Z,1.56
2017-12-13T01:55:39.260Z,1.50
2017-12-13T01:56:39.256Z,1.53
2017-12-13T01:57:39.198Z,1.53
2017-12-13T01:58:39.192Z,1.53
2017-12-13T01:59:39.179Z,1.48
2017-12-13T02:00:39.117Z,1.45
2017-12-13T02:01:39.084Z,1.48
2017-12-13T02:02:39.101Z,1.48
2017-12-13T02:03:39.077Z,1.52
2017-12-13T02:04:39.076Z,1.58
2017-12-13T02:05:38.979Z,1.56
2017-12-13T02:06:39.007Z,1.55
2017-12-13T02:07:38.942Z,1.59
2017-12-13T02:08:38.929Z,1.58
2017-12-13T02:09:38.903Z,1.55
2017-12-13T02:10:38.872Z,1.60
2017-12-13T02:11:38.864Z,1.60
2017-12-13T02:12:38.857Z,1.59
2017-12-13T02:13:38.847Z,1.62
2017-12-13T02:14:38.820Z,1.53
2017-12-13T02:15:38.791Z,1.48
2017-12-13T02:16:38.726Z,1.53
2017-12-13T02:17:38.706Z,1.52
2017-12-13T02:18:38.672Z,1.55
2017-12-13T02:19:38.666Z,1.55
2017-12-13T02:20:38.635Z,1.50
2017-12-13T02:21:59.641Z,1.50
2017-12-13T02:22:38.572Z,1.50
2017-12-13T02:23:59.567Z,1.45
2017-12-13T02:24:59.559Z,1.52
2017-12-13T02:25:38.497Z,1.42
2017-12-13T02:26:38.488Z,1.50
2017-12-13T02:27:38.497Z,1.42
2017-12-13T02:28:38.493Z,1.48
2017-12-13T02:29:38.433Z,1.40
2017-12-13T02:30:38.419Z,1.35
2017-12-13T02:31:38.352Z,1.28
2017-12-13T02:32:38.339Z,1.14
2017-12-13T02:33:38.311Z,1.06
2017-12-13T02:34:38.303Z,1.12
2017-12-13T02:35:38.286Z,1.02
2017-12-13T02:36:38.251Z,0.88
2017-12-13T02:37:38.239Z,0.83
2017-12-13T02:38:38.189Z,0.76
2017-12-13T02:39:38.182Z,0.77
2017-12-13T02:40:38.172Z,0.63
2017-12-13T02:41:38.130Z,0.60
2017-12-13T02:42:38.100Z,0.68
2017-12-13T02:43:38.074Z,0.62
2017-12-13T02:44:38.085Z,0.58
2017-12-13T02:45:38.001Z,0.62
2017-12-13T02:46:37.990Z,0.50
2017-12-13T02:47:37.964Z,0.47
2017-12-13T02:48:37.956Z,0.43
2017-12-13T02:49:37.924Z,0.31
2017-12-13T02:50:37.888Z,0.34
2017-12-13T02:51:37.873Z,0.26
2017-12-13T02:52:37.896Z,0.26
2017-12-13T02:53:37.856Z,0.18
2017-12-13T02:54:37.801Z,0.21
2017-12-13T02:55:37.777Z,0.26
2017-12-13T02:56:37.731Z,0.23
2017-12-13T02:57:37.744Z,0.21
2017-12-13T02:58:37.731Z,0.36
2017-12-13T02:59:37.725Z,0.26
2017-12-13T03:00:37.634Z,0.29
2017-12-13T03:01:37.659Z,0.36
2017-12-13T03:02:37.608Z,0.43
2017-12-13T03:03:37.602Z,0.40
2017-12-13T03:04:37.554Z,0.44
2017-12-13T03:05:37.522Z,0.40
2017-12-13T03:06:37.525Z,0.44
2017-12-13T03:07:37.475Z,0.37
2017-12-13T03:08:37.462Z,0.32
2017-12-13T03:09:37.416Z,0.28
2017-12-13T03:10:37.452Z,0.25
2017-12-13T03:11:37.374Z,0.16
2017-12-13T03:12:37.373Z,0.12
2017-12-13T03:13:37.337Z,0.15
2017-12-13T03:14:37.295Z,0.22
2017-12-13T03:15:37.267Z,0.18
2017-12-13T03:16:37.268Z,0.18
2017-12-13T03:17:37.200Z,0.15
2017-12-13T03:18:37.236Z,0.12
2017-12-13T03:19:37.186Z,0.08
2017-12-13T03:20:37.147Z,0.10
2017-12-13T03:21:37.172Z,0.12
2017-12-13T03:22:37.149Z,0.19
2017-12-13T03:23:37.078Z,0.26
2017-12-13T03:24:37.054Z,0.29
2017-12-13T03:25:37.044Z,0.29
2017-12-13T03:26:36.993Z,0.28
2017-12-13T03:27:36.958Z,0.21
2017-12-13T03:28:36.955Z,0.29
2017-12-13T03:29:36.968Z,0.31
2017-12-13T03:30:36.948Z,0.28
2017-12-13T03:31:36.925Z,0.31
2017-12-13T03:32:36.860Z,0.28
2017-12-13T03:33:36.853Z,0.32
2017-12-13T03:34:36.786Z,0.36
2017-12-13T03:35:36.799Z,0.37
2017-12-13T03:36:36.769Z,0.43
2017-12-13T03:37:36.724Z,0.44
2017-12-13T03:38:36.713Z,0.60
2017-12-13T03:39:36.689Z,0.58
2017-12-13T03:40:36.673Z,0.66
2017-12-13T03:41:36.642Z,0.58
2017-12-13T03:42:36.678Z,0.62
2017-12-13T03:43:36.607Z,0.63
2017-12-13T03:44:36.563Z,0.60
2017-12-13T03:45:36.545Z,0.66
2017-12-13T03:46:36.556Z,0.63
2017-12-13T03:47:36.514Z,0.69
2017-12-13T03:48:36.487Z,0.58
2017-12-13T03:49:36.422Z,0.66
2017-12-13T03:50:36.414Z,0.59
2017-12-13T03:51:36.379Z,0.47
2017-12-13T03:52:36.372Z,0.62
2017-12-13T03:53:36.323Z,0.63
2017-12-13T03:54:36.314Z,0.58
2017-12-13T03:55:36.283Z,0.56
2017-12-13T03:56:36.232Z,0.62
2017-12-13T03:57:36.220Z,0.62
2017-12-13T03:58:36.200Z,0.63
2017-12-13T03:59:36.200Z,0.62
2017-12-13T04:00:36.144Z,0.74
2017-12-13T04:01:36.112Z,0.65
2017-12-13T04:02:36.138Z,0.66
2017-12-13T04:03:36.115Z,0.63
2017-12-13T04:04:36.073Z,0.78
2017-12-13T04:05:36.036Z,0.69
2017-12-13T04:06:36.021Z,0.69
2017-12-13T04:07:36.020Z,0.73
2017-12-13T04:08:35.974Z,0.73
2017-12-13T04:09:35.923Z,0.70
2017-12-13T04:10:35.887Z,0.76
2017-12-13T04:11:35.963Z,0.68
2017-12-13T04:12:35.858Z,0.65
2017-12-13T04:13:35.867Z,0.68
2017-12-13T04:14:35.833Z,0.52
2017-12-13T04:15:35.786Z,0.55
2017-12-13T04:16:35.736Z,0.52
2017-12-13T04:17:35.756Z,0.60
2017-12-13T04:18:35.704Z,0.52
2017-12-13T04:19:35.680Z,0.55
2017-12-13T04:20:35.656Z,0.55
2017-12-13T04:21:35.622Z,0.50
2017-12-13T04:22:35.626Z,0.47
2017-12-13T04:23:35.595Z,0.39
2017-12-13T04:24:35.571Z,0.37
2017-12-13T04:25:35.503Z,0.37
2017-12-13T04:26:35.506Z,0.37
2017-12-13T04:27:35.497Z,0.37
2017-12-13T04:28:35.466Z,0.41
2017-12-13T04:29:35.468Z,0.44
2017-12-13T04:30:35.399Z,0.37
2017-12-13T04:31:35.403Z,0.36
2017-12-13T04:32:35.366Z,0.29
2017-12-13T04:33:35.391Z,0.28
2017-12-13T04:34:35.346Z,0.43
2017-12-13T04:35:35.293Z,0.37
2017-12-13T04:36:35.306Z,0.50
2017-12-13T04:37:35.915Z,0.52
2017-12-13T04:38:35.253Z,0.66
2017-12-13T04:39:35.212Z,0.63
2017-12-13T04:40:35.212Z,0.65
2017-12-13T04:41:35.136Z,0.69
2017-12-13T04:42:35.138Z,0.81
2017-12-13T04:43:35.132Z,0.86
2017-12-13T04:44:35.071Z,0.94
2017-12-13T04:45:35.043Z,0.99
2017-12-13T04:46:35.144Z,1.12
2017-12-13T04:47:35.158Z,1.13
2017-12-13T04:48:34.993Z,1.06
2017-12-13T04:49:34.952Z,1.13
2017-12-13T04:50:34.942Z,1.14
2017-12-13T04:51:34.910Z,1.06
2017-12-13T04:52:34.868Z,1.08
2017-12-13T04:53:34.865Z,1.06
2017-12-13T04:54:34.827Z,1.10
2017-12-13T04:55:34.782Z,1.10
2017-12-13T04:56:34.778Z,1.10
2017-12-13T04:57:34.752Z,1.14
2017-12-13T04:58:34.742Z,1.24
2017-12-13T04:59:34.721Z,1.19
2017-12-13T05:00:34.706Z,1.28
2017-12-13T05:01:34.679Z,1.23
2017-12-13T05:02:34.665Z,1.23
2017-12-13T05:03:34.663Z,1.12
2017-12-13T05:04:35.555Z,1.13
2017-12-13T05:05:34.607Z,1.22
2017-12-13T05:06:34.590Z,1.12
2017-12-13T05:07:34.585Z,1.20
2017-12-13T05:08:35.446Z,1.26
2017-12-13T05:09:34.490Z,1.23
2017-12-13T05:11:30.609Z,1.24
2017-12-13T05:12:30.183Z,1.31
2017-12-13T05:13:30.142Z,1.35
2017-12-13T05:14:31.224Z,1.38
2017-12-13T05:15:31.198Z,1.42
2017-12-13T05:16:31.249Z,1.53
2017-12-13T05:17:30.668Z,1.53
2017-12-13T05:18:30.651Z,1.52
2017-12-13T05:19:31.219Z,1.59
2017-12-13T05:20:30.619Z,1.56
2017-12-13T05:21:31.620Z,1.60
2017-12-13T05:22:30.160Z,1.63
2017-12-13T05:23:29.726Z,1.59
2017-12-13T05:24:29.497Z,1.66
2017-12-13T05:25:29.559Z,1.74
2017-12-13T05:26:29.537Z,1.76
2017-12-13T05:27:29.479Z,1.74
2017-12-13T05:28:29.477Z,1.73
2017-12-13T05:29:29.422Z,1.74
2017-12-13T05:30:29.402Z,1.74
2017-12-13T05:31:29.409Z,1.81
2017-12-13T05:32:29.352Z,1.80
2017-12-13T05:33:29.327Z,1.85
2017-12-13T05:34:29.307Z,1.80
2017-12-13T05:35:29.255Z,1.88
2017-12-13T05:36:29.263Z,1.89
2017-12-13T05:37:29.260Z,1.85
2017-12-13T05:38:29.189Z,1.87
2017-12-13T05:39:29.159Z,1.88
2017-12-13T05:40:29.145Z,1.84
2017-12-13T05:41:29.135Z,1.85
2017-12-13T05:42:29.108Z,1.88
2017-12-13T05:43:29.060Z,1.88
2017-12-13T05:44:29.043Z,1.87
2017-12-13T05:45:29.055Z,1.89
2017-12-13T05:46:29.008Z,1.94
2017-12-13T05:47:28.985Z,1.89
2017-12-13T05:48:31.879Z,1.94
2017-12-13T05:49:28.972Z,1.89
2017-12-13T05:50:28.876Z,1.94
2017-12-13T05:51:28.863Z,1.91
2017-12-13T05:52:28.877Z,1.91
2017-12-13T05:53:28.820Z,1.94
2017-12-13T05:54:28.812Z,2.04
2017-12-13T05:55:28.736Z,1.94
2017-12-13T05:56:28.803Z,1.94
2017-12-13T05:57:28.703Z,1.95
2017-12-13T05:58:28.691Z,2.02
2017-12-13T05:59:28.661Z,1.97
2017-12-13T06:00:28.634Z,1.88
2017-12-13T06:01:28.669Z,1.97
2017-12-13T06:02:28.614Z,1.95
2017-12-13T06:03:28.566Z,1.89
2017-12-13T06:04:28.557Z,1.89
2017-12-13T06:05:28.500Z,1.89
2017-12-13T06:06:28.475Z,1.91
2017-12-13T06:07:28.468Z,1.74
2017-12-13T06:08:28.439Z,1.76
2017-12-13T06:09:28.447Z,1.74
2017-12-13T06:10:28.419Z,1.80
2017-12-13T06:11:28.359Z,1.77
2017-12-13T06:12:28.411Z,1.66
2017-12-13T06:13:28.305Z,1.63
2017-12-13T06:14:28.310Z,1.66
2017-12-13T06:15:28.295Z,1.76
2017-12-13T06:16:28.223Z,1.68
2017-12-13T06:17:28.233Z,1.71
2017-12-13T06:18:30.890Z,1.77
2017-12-13T06:19:28.240Z,1.78
2017-12-13T06:20:28.180Z,1.70
2017-12-13T06:21:28.111Z,1.76
2017-12-13T06:22:28.118Z,1.77
2017-12-13T06:23:28.074Z,1.76
2017-12-13T06:24:28.054Z,1.76
2017-12-13T06:25:28.033Z,1.73
2017-12-13T06:26:28.034Z,1.67
2017-12-13T06:27:27.990Z,1.63
2017-12-13T06:28:27.946Z,1.59
2017-12-13T06:29:27.943Z,1.58
2017-12-13T06:30:27.922Z,1.53
2017-12-13T06:31:27.910Z,1.52
2017-12-13T06:32:27.871Z,1.53
2017-12-13T06:33:27.841Z,1.53
2017-12-13T06:34:27.792Z,1.52
2017-12-13T06:35:27.778Z,1.38
2017-12-13T06:36:27.765Z,1.42
2017-12-13T06:37:27.764Z,1.40
2017-12-13T06:38:27.737Z,1.32
2017-12-13T06:39:27.700Z,1.28
2017-12-13T06:40:27.691Z,1.31
2017-12-13T06:41:27.623Z,1.26
2017-12-13T06:42:27.670Z,1.30
2017-12-13T06:43:27.584Z,1.26
2017-12-13T06:44:27.572Z,1.17
2017-12-13T06:45:27.542Z,1.32
2017-12-13T06:46:27.532Z,1.31
2017-12-13T06:47:27.467Z,1.34
2017-12-13T06:48:27.470Z,1.32
2017-12-13T06:49:27.455Z,1.37
2017-12-13T06:50:27.415Z,1.37
2017-12-13T06:51:27.374Z,1.42
2017-12-13T06:52:27.356Z,1.50
2017-12-13T06:53:27.347Z,1.52
2017-12-13T06:54:27.321Z,1.62
2017-12-13T06:55:27.292Z,1.62
2017-12-13T06:56:27.269Z,1.63
2017-12-13T06:57:27.236Z,1.67
2017-12-13T06:58:27.261Z,1.77
2017-12-13T06:59:27.196Z,1.80
2017-12-13T07:00:27.144Z,1.78
2017-12-13T07:01:27.140Z,1.84
2017-12-13T07:02:27.143Z,1.84
2017-12-13T07:03:27.176Z,1.88
2017-12-13T07:04:27.097Z,1.94
2017-12-13T07:05:29.900Z,1.94
2017-12-13T07:06:27.049Z,2.00
2017-12-13T07:07:26.957Z,2.07
2017-12-13T07:08:26.951Z,2.07
2017-12-13T07:09:26.937Z,2.10
2017-12-13T07:10:26.954Z,2.07
2017-12-13T07:11:26.895Z,2.14
2017-12-13T07:12:26.870Z,2.13
2017-12-13T07:13:26.837Z,2.07
2017-12-13T07:14:26.810Z,2.13
2017-12-13T07:15:26.795Z,2.18
2017-12-13T07:16:26.763Z,2.20
2017-12-13T07:17:26.818Z,2.18
2017-12-13T07:18:26.826Z,2.15
2017-12-13T07:19:26.731Z,2.15
2017-12-13T07:20:26.722Z,2.18
2017-12-13T07:21:26.817Z,2.20
2017-12-13T07:22:26.766Z,2.20
2017-12-13T07:23:27.290Z,2.18
2017-12-13T07:24:27.409Z,2.15
2017-12-13T07:25:27.813Z,2.18
2017-12-13T07:26:26.832Z,2.28
2017-12-13T07:27:26.674Z,2.18
2017-12-13T07:28:26.803Z,2.31
2017-12-13T07:29:26.562Z,2.15
2017-12-13T07:30:26.612Z,2.14
2017-12-13T07:31:26.620Z,2.22
2017-12-13T07:32:26.487Z,2.25
2017-12-13T07:33:26.426Z,2.18
2017-12-13T07:34:26.518Z,2.29
2017-12-13T07:35:26.392Z,2.18
2017-12-13T07:36:26.475Z,2.26
2017-12-13T07:37:26.370Z,2.28
2017-12-13T07:38:26.422Z,2.18
2017-12-13T07:39:26.228Z,2.26
2017-12-13T07:40:26.261Z,2.25
2017-12-13T07:41:26.266Z,2.35
2017-12-13T07:42:26.222Z,2.42
2017-12-13T07:43:26.220Z,2.39
2017-12-13T07:44:26.097Z,2.29
2017-12-13T07:45:26.259Z,2.43
2017-12-13T07:46:26.210Z,2.31
2017-12-13T07:47:26.117Z,2.26
2017-12-13T07:48:26.044Z,2.35
2017-12-13T07:49:26.019Z,2.25
2017-12-13T07:50:26.033Z,2.29
2017-12-13T07:51:25.932Z,2.25
2017-12-13T07:52:25.949Z,2.24
2017-12-13T07:53:25.887Z,2.25
2017-12-13T07:54:25.942Z,2.24
2017-12-13T07:55:25.919Z,2.22
2017-12-13T07:56:25.987Z,2.32
2017-12-13T07:57:25.914Z,2.26
2017-12-13T07:58:25.885Z,2.32
2017-12-13T07:59:25.773Z,2.28
2017-12-13T08:00:25.773Z,2.39
2017-12-13T08:01:25.835Z,2.39
2017-12-13T08:02:25.723Z,2.49
2017-12-13T08:03:26.490Z,2.46
2017-12-13T08:04:25.672Z,2.44
2017-12-13T08:05:25.668Z,2.42
2017-12-13T08:06:25.642Z,2.50
2017-12-13T08:07:25.658Z,2.54
2017-12-13T08:08:25.585Z,2.53
2017-12-13T08:09:25.552Z,2.61
2017-12-13T08:10:25.563Z,2.51
2017-12-13T08:11:25.472Z,2.60
2017-12-13T08:12:25.584Z,2.54
2017-12-13T08:13:25.496Z,2.64
2017-12-13T08:14:25.371Z,2.67
2017-12-13T08:15:25.628Z,2.56
2017-12-13T08:16:25.347Z,2.64
2017-12-13T08:17:25.319Z,2.62
2017-12-13T08:18:25.317Z,2.68
2017-12-13T08:19:25.303Z,2.69
2017-12-13T08:20:25.232Z,2.68
2017-12-13T08:21:25.196Z,2.64
2017-12-13T08:22:25.274Z,2.67
2017-12-13T08:23:25.213Z,2.67
2017-12-13T08:24:25.162Z,2.69
2017-12-13T08:25:25.144Z,2.71
2017-12-13T08:26:25.100Z,2.83
2017-12-13T08:27:25.109Z,2.79
2017-12-13T08:28:25.122Z,2.77
2017-12-13T08:29:25.042Z,2.80
2017-12-13T08:30:25.049Z,2.83
2017-12-13T08:31:24.981Z,2.74
2017-12-13T08:32:24.976Z,2.74
2017-12-13T08:33:24.947Z,2.71
2017-12-13T08:34:24.937Z,2.75
2017-12-13T08:35:24.885Z,2.82
2017-12-13T08:36:24.879Z,2.82
2017-12-13T08:37:24.823Z,2.80
2017-12-13T08:38:24.817Z,2.82
2017-12-13T08:39:24.898Z,2.85
2017-12-13T08:40:24.762Z,2.82
2017-12-13T08:41:24.786Z,2.79
2017-12-13T08:42:24.711Z,2.79
2017-12-13T08:43:24.774Z,2.85
2017-12-13T08:44:24.668Z,2.80
2017-12-13T08:45:24.755Z,2.77
2017-12-13T08:46:24.748Z,2.98
2017-12-13T08:47:24.583Z,2.90
2017-12-13T08:48:24.690Z,2.90
2017-12-13T08:49:28.599Z,3.00
2017-12-13T08:50:24.678Z,2.92
2017-12-13T08:51:24.507Z,2.98
2017-12-13T08:52:25.303Z,3.04
2017-12-13T08:53:24.537Z,3.01
2017-12-13T08:54:25.305Z,3.01
2017-12-13T08:55:24.567Z,3.07
2017-12-13T08:56:25.308Z,2.92
2017-12-13T08:57:25.336Z,3.07
2017-12-13T08:58:24.511Z,3.05
2017-12-13T08:59:24.780Z,3.14
2017-12-13T09:00:24.323Z,3.16
2017-12-13T09:01:24.432Z,3.18
2017-12-13T09:02:24.387Z,3.18
2017-12-13T09:03:24.638Z,3.19
2017-12-13T09:04:24.491Z,3.13
2017-12-13T09:05:27.066Z,3.18
2017-12-13T09:06:24.344Z,3.13
2017-12-13T09:07:24.110Z,3.07
2017-12-13T09:08:24.262Z,3.08
2017-12-13T09:09:24.161Z,3.07
2017-12-13T09:10:24.123Z,3.10
2017-12-13T09:11:24.112Z,3.22
2017-12-13T09:12:24.036Z,3.23
2017-12-13T09:13:24.020Z,3.26
2017-12-13T09:14:23.997Z,3.41
2017-12-13T09:15:23.934Z,3.56
2017-12-13T09:16:23.862Z,3.48
2017-12-13T09:17:23.960Z,3.65
2017-12-13T09:18:23.961Z,3.68
2017-12-13T09:19:23.868Z,3.63
2017-12-13T09:20:23.891Z,3.74
2017-12-13T09:21:23.860Z,3.70
2017-12-13T09:22:23.815Z,3.76
2017-12-13T09:23:23.816Z,3.78
2017-12-13T09:24:23.730Z,3.81
2017-12-13T09:25:23.783Z,3.78
2017-12-13T09:26:23.696Z,3.80
2017-12-13T09:27:23.639Z,3.87
2017-12-13T09:28:23.616Z,3.87
2017-12-13T09:29:23.694Z,3.80
2017-12-13T09:30:23.546Z,3.81
2017-12-13T09:31:23.602Z,3.77
2017-12-13T09:32:23.528Z,3.62
2017-12-13T09:33:23.536Z,3.53
2017-12-13T09:34:23.528Z,3.51
2017-12-13T09:35:23.523Z,3.58
2017-12-13T09:36:23.550Z,3.51
2017-12-13T09:37:23.498Z,3.51
2017-12-13T09:38:23.443Z,3.59
2017-12-13T09:39:23.435Z,3.56
2017-12-13T09:40:23.354Z,3.62
2017-12-13T09:41:23.317Z,3.59
2017-12-13T09:42:23.375Z,3.60
2017-12-13T09:43:23.388Z,3.63
2017-12-13T09:44:26.915Z,3.63
2017-12-13T09:45:23.228Z,3.60
2017-12-13T09:46:23.195Z,3.60
2017-12-13T09:47:23.254Z,3.68
2017-12-13T09:48:23.162Z,3.68
2017-12-13T09:49:23.217Z,3.69
2017-12-13T09:50:23.168Z,3.59
2017-12-13T09:51:23.120Z,3.60
2017-12-13T09:52:23.119Z,3.66
2017-12-13T09:53:23.051Z,3.65
2017-12-13T09:54:23.045Z,3.77
2017-12-13T09:55:23.057Z,3.80
2017-12-13T09:56:22.974Z,3.77
2017-12-13T09:57:22.930Z,3.78
2017-12-13T09:58:22.896Z,3.76
2017-12-13T09:59:26.450Z,3.80
2017-12-13T10:00:22.877Z,3.99
2017-12-13T10:01:22.877Z,3.86
2017-12-13T10:02:22.848Z,3.94
2017-12-13T10:03:22.819Z,3.98
2017-12-13T10:04:22.777Z,3.99
2017-12-13T10:05:22.814Z,3.95
2017-12-13T10:06:22.768Z,3.91
2017-12-13T10:07:22.705Z,3.94
2017-12-13T10:08:23.320Z,3.95
2017-12-13T10:09:22.665Z,3.98
2017-12-13T10:10:22.665Z,4.02
2017-12-13T10:11:22.641Z,3.95
2017-12-13T10:12:22.632Z,4.08
2017-12-13T10:13:22.575Z,4.06
2017-12-13T10:14:22.539Z,3.96
2017-12-13T10:15:22.542Z,4.02
2017-12-13T10:16:22.484Z,4.04
2017-12-13T10:17:22.533Z,4.04
2017-12-13T10:18:22.473Z,4.02
2017-12-13T10:19:22.403Z,4.10
2017-12-13T10:20:22.433Z,3.96
2017-12-13T10:21:22.361Z,3.99
2017-12-13T10:22:22.369Z,3.98
2017-12-13T10:23:22.323Z,4.05
2017-12-13T10:24:22.287Z,4.04
2017-12-13T10:25:22.273Z,4.19
2017-12-13T10:26:22.277Z,4.01
2017-12-13T10:27:22.268Z,3.96
2017-12-13T10:28:22.194Z,3.96
2017-12-13T10:29:22.163Z,3.95
2017-12-13T10:30:22.168Z,3.88
2017-12-13T10:31:22.146Z,3.91
2017-12-13T10:32:22.076Z,3.91
2017-12-13T10:33:22.106Z,3.91
2017-12-13T10:34:22.105Z,3.86
2017-12-13T10:35:22.059Z,3.88
2017-12-13T10:36:22.032Z,3.98
2017-12-13T10:37:22.015Z,3.96
2017-12-13T10:38:22.040Z,3.98
2017-12-13T10:39:21.979Z,3.94
2017-12-13T10:40:21.986Z,3.91
2017-12-13T10:41:21.915Z,3.88
2017-12-13T10:42:21.877Z,3.91
2017-12-13T10:43:21.852Z,3.88
2017-12-13T10:44:21.854Z,3.81
2017-12-13T10:45:24.482Z,3.91
2017-12-13T10:46:21.757Z,3.88
2017-12-13T10:47:21.775Z,3.78
2017-12-13T10:48:21.761Z,3.81
2017-12-13T10:49:21.687Z,3.87
2017-12-13T10:50:21.714Z,3.76
2017-12-13T10:51:21.677Z,3.78
2017-12-13T10:52:21.632Z,3.77
2017-12-13T10:53:21.595Z,3.80
2017-12-13T10:54:21.647Z,3.83
2017-12-13T10:55:21.622Z,3.78
2017-12-13T10:56:24.425Z,3.83
2017-12-13T10:57:21.500Z,3.84
2017-12-13T10:58:21.551Z,3.87
2017-12-13T10:59:21.498Z,3.96
2017-12-13T11:00:21.485Z,4.01
2017-12-13T11:01:23.960Z,3.98
2017-12-13T11:02:21.416Z,3.99
2017-12-13T11:03:21.377Z,3.94
2017-12-13T11:04:21.324Z,3.94
2017-12-13T11:05:21.346Z,3.91
2017-12-13T11:06:21.320Z,3.83
2017-12-13T11:07:21.289Z,3.86
2017-12-13T11:08:21.286Z,3.92
2017-12-13T11:09:21.254Z,3.87
2017-12-13T11:10:21.259Z,3.81
2017-12-13T11:11:21.150Z,3.83
2017-12-13T11:12:21.208Z,3.87
2017-12-13T11:13:21.174Z,3.91
2017-12-13T11:14:21.201Z,3.80
2017-12-13T11:15:21.105Z,3.88
2017-12-13T11:16:21.093Z,3.81
2017-12-13T11:17:21.016Z,3.80
2017-12-13T11:18:21.068Z,3.80
2017-12-13T11:19:20.985Z,3.88
2017-12-13T11:20:20.983Z,3.95
2017-12-13T11:21:20.942Z,3.88
2017-12-13T11:22:20.918Z,3.91
2017-12-13T11:23:20.932Z,4.01
2017-12-13T11:24:20.876Z,3.99
2017-12-13T11:25:20.868Z,3.96
2017-12-13T11:26:20.853Z,3.98
2017-12-13T11:27:20.826Z,3.99
2017-12-13T11:28:20.796Z,3.94
2017-12-13T11:29:20.756Z,4.08
2017-12-13T11:30:20.759Z,3.99
2017-12-13T11:31:20.699Z,3.95
2017-12-13T11:32:20.767Z,4.01
2017-12-13T11:33:20.666Z,4.05
2017-12-13T11:34:20.638Z,4.04
2017-12-13T11:35:20.673Z,4.05
2017-12-13T11:36:20.572Z,4.17
2017-12-13T11:37:20.759Z,4.17
2017-12-13T11:38:23.468Z,4.19
2017-12-13T11:39:20.529Z,4.17
2017-12-13T11:40:20.537Z,4.13
2017-12-13T11:41:20.504Z,4.17
2017-12-13T11:42:20.423Z,4.14
2017-12-13T11:43:20.394Z,4.16
2017-12-13T11:44:20.385Z,4.12
2017-12-13T11:45:20.404Z,4.22
2017-12-13T11:46:20.370Z,4.24
2017-12-13T11:47:20.366Z,4.32
2017-12-13T11:48:20.321Z,4.35
2017-12-13T11:49:20.282Z,4.35
2017-12-13T11:50:20.223Z,4.38
2017-12-13T11:51:20.253Z,4.37
2017-12-13T11:52:20.232Z,4.31
2017-12-13T11:53:20.211Z,4.37
2017-12-13T11:54:23.053Z,4.41
2017-12-13T11:55:20.115Z,4.45
2017-12-13T11:56:20.163Z,4.48
2017-12-13T11:57:20.145Z,4.49
2017-12-13T11:58:20.144Z,4.44
2017-12-13T11:59:20.085Z,4.48
2017-12-13T12:00:20.133Z,4.48
2017-12-13T12:01:20.003Z,4.59
2017-12-13T12:02:20.003Z,4.60
2017-12-13T12:03:19.964Z,4.70
2017-12-13T12:04:19.933Z,4.74
2017-12-13T12:05:19.929Z,4.75
2017-12-13T12:06:19.912Z,4.84
2017-12-13T12:07:19.869Z,4.87
2017-12-13T12:08:19.890Z,4.96
2017-12-13T12:09:19.860Z,5.02
2017-12-13T12:10:19.824Z,5.05
2017-12-13T12:11:19.811Z,5.11
2017-12-13T12:12:19.752Z,4.97
2017-12-13T12:13:19.799Z,4.96
2017-12-13T12:14:22.504Z,4.94
2017-12-13T12:15:19.694Z,4.94
2017-12-13T12:16:19.699Z,4.93
2017-12-13T12:17:19.669Z,4.87
2017-12-13T12:18:19.635Z,4.89
2017-12-13T12:19:19.710Z,4.80
2017-12-13T12:20:19.576Z,4.80
2017-12-13T12:21:19.544Z,4.73
2017-12-13T12:22:19.519Z,4.75
2017-12-13T12:23:19.492Z,4.80
2017-12-13T12:24:19.456Z,4.74
2017-12-13T12:25:23.025Z,4.75
2017-12-13T12:26:19.417Z,4.77
2017-12-13T12:27:19.400Z,4.80
2017-12-13T12:28:19.403Z,4.80
2017-12-13T12:29:19.336Z,4.78
2017-12-13T12:30:19.316Z,4.75
2017-12-13T12:31:22.977Z,4.75
2017-12-13T12:32:19.328Z,4.74
2017-12-13T12:33:19.321Z,4.74
2017-12-13T12:34:22.982Z,4.71
2017-12-13T12:35:19.245Z,4.77
2017-12-13T12:36:19.178Z,4.73
2017-12-13T12:37:19.154Z,4.70
2017-12-13T12:38:19.146Z,4.59
2017-12-13T12:39:19.149Z,4.66
2017-12-13T12:40:19.125Z,4.62
2017-12-13T12:41:19.098Z,4.49
2017-12-13T12:42:19.066Z,4.50
2017-12-13T12:43:19.044Z,4.44
2017-12-13T12:44:19.068Z,4.31
2017-12-13T12:45:18.988Z,4.31
2017-12-13T12:46:18.955Z,4.38
2017-12-13T12:47:19.182Z,4.40
2017-12-13T12:48:18.921Z,4.34
2017-12-13T12:49:18.927Z,4.32
2017-12-13T12:50:18.900Z,4.31
2017-12-13T12:51:18.838Z,4.34
2017-12-13T12:52:18.838Z,4.23
2017-12-13T12:53:18.820Z,4.24
2017-12-13T12:54:18.802Z,4.14
2017-12-13T12:55:18.780Z,4.12
2017-12-13T12:56:18.771Z,4.19
2017-12-13T12:57:18.747Z,4.19
2017-12-13T12:58:18.693Z,4.14
2017-12-13T12:59:18.668Z,4.14
2017-12-13T13:00:18.635Z,4.01
2017-12-13T13:01:21.503Z,3.98
2017-12-13T13:02:18.598Z,3.91
2017-12-13T13:03:18.591Z,3.77
2017-12-13T13:04:18.563Z,3.65
2017-12-13T13:05:18.515Z,3.53
2017-12-13T13:06:18.553Z,3.53
2017-12-13T13:07:21.425Z,3.36
2017-12-13T13:08:18.470Z,3.31
2017-12-13T13:09:18.460Z,3.32
2017-12-13T13:10:18.378Z,3.32
2017-12-13T13:11:18.385Z,3.19
2017-12-13T13:12:18.386Z,3.28
2017-12-13T13:13:18.340Z,3.19
2017-12-13T13:14:18.861Z,3.19
2017-12-13T13:15:18.312Z,3.18
2017-12-13T13:16:18.287Z,3.13
2017-12-13T13:17:18.284Z,3.05
2017-12-13T13:18:18.231Z,3.04
2017-12-13T13:19:18.186Z,3.05